createdAt,value
2022-11-01T00:04:13.617Z,1005.9
2022-11-01T00:09:19.989Z,1005.9
2022-11-01T00:14:46.526Z,1005.8
2022-11-01T00:19:23.467Z,1005.9
2022-11-01T00:24:29.930Z,1005.9
2022-11-01T00:29:46.320Z,1005.8
2022-11-01T00:34:52.688Z,1005.9
2022-11-01T00:40:03.139Z,1005.8
2022-11-01T00:45:05.504Z,1005.7
2022-11-01T00:50:35.937Z,1005.8
2022-11-01T00:55:18.297Z,1005.7
2022-11-01T01:00:14.790Z,1005.6
2022-11-01T01:05:45.285Z,1005.5
2022-11-01T01:10:37.684Z,1005.5
2022-11-01T01:15:44.045Z,1005.4
2022-11-01T01:21:14.495Z,1005.3
2022-11-01T01:25:56.849Z,1005.2
2022-11-01T01:31:03.204Z,1005.0
2022-11-01T01:36:09.686Z,1005.0
2022-11-01T01:41:06.108Z,1004.9
2022-11-01T01:46:22.768Z,1004.8
2022-11-01T01:51:29.179Z,1004.8
2022-11-01T01:56:39.604Z,1004.8
2022-11-01T02:01:42.126Z,1004.8
2022-11-01T02:06:52.297Z,1004.7
2022-11-01T02:11:58.772Z,1004.6
2022-11-01T02:17:00.276Z,1004.7
2022-11-01T02:22:27.803Z,1004.6
2022-11-01T02:27:14.264Z,1004.6
2022-11-01T02:32:10.617Z,1004.6
2022-11-01T02:37:16.987Z,1004.6
2022-11-01T02:42:33.415Z,1004.6
2022-11-01T02:47:29.745Z,1004.6
2022-11-01T02:52:36.135Z,1004.6
2022-11-01T02:57:52.705Z,1004.5
2022-11-01T03:02:49.125Z,1004.5
2022-11-01T03:08:09.541Z,1004.5
2022-11-01T03:13:11.984Z,1004.6
2022-11-01T03:18:18.341Z,1004.5
2022-11-01T03:23:24.712Z,1004.6
2022-11-01T03:33:36.467Z,1004.5
2022-11-01T03:43:51.398Z,1004.5
2022-11-01T03:48:58.045Z,1004.6
2022-11-01T03:54:03.465Z,1004.5
2022-11-01T03:59:10.882Z,1004.6
2022-11-01T04:04:17.261Z,1004.6
2022-11-01T04:09:47.679Z,1004.6
2022-11-01T04:14:30.048Z,1004.5
2022-11-01T04:19:36.445Z,1004.7
2022-11-01T04:24:42.894Z,1004.7
2022-11-01T04:29:49.340Z,1004.7
2022-11-01T04:34:55.822Z,1004.8
2022-11-01T04:40:01.125Z,1004.9
2022-11-01T04:45:08.505Z,1004.8
2022-11-01T04:50:14.905Z,1004.9
2022-11-01T04:55:21.264Z,1005.0
2022-11-01T05:00:27.762Z,1005.0
2022-11-01T05:05:34.274Z,1005.1
2022-11-01T05:10:40.721Z,1005.1
2022-11-01T05:16:19.471Z,1005.2
2022-11-01T05:20:52.567Z,1005.2
2022-11-01T05:25:59.955Z,1005.3
2022-11-01T05:31:06.329Z,1005.4
2022-11-01T05:36:12.767Z,1005.5
2022-11-01T05:41:19.133Z,1005.5
2022-11-01T05:47:02.586Z,1005.5
2022-11-01T05:52:09.999Z,1005.6
2022-11-01T05:57:40.496Z,1005.7
2022-11-01T06:02:12.844Z,1005.7
2022-11-01T06:07:29.214Z,1005.8
2022-11-01T06:12:35.571Z,1005.9
2022-11-01T06:17:41.940Z,1006.1
2022-11-01T06:22:48.354Z,1006.2
2022-11-01T06:27:54.695Z,1006.4
2022-11-01T06:32:51.240Z,1006.5
2022-11-01T06:38:31.738Z,1006.7
2022-11-01T06:43:14.034Z,1006.8
2022-11-01T06:48:20.444Z,1006.9
2022-11-01T06:53:26.837Z,1006.9
2022-11-01T06:58:37.229Z,1007.0
2022-11-01T07:03:39.570Z,1007.2
2022-11-01T07:08:45.994Z,1007.4
2022-11-01T07:14:16.428Z,1007.4
2022-11-01T07:18:58.726Z,1007.5
2022-11-01T07:23:55.092Z,1007.7
2022-11-01T07:29:12.059Z,1007.8
2022-11-01T07:34:18.486Z,1007.8
2022-11-01T07:39:14.843Z,1007.8
2022-11-01T07:44:31.883Z,1008.1
2022-11-01T07:49:28.272Z,1008.0
2022-11-01T07:54:34.750Z,1008.0
2022-11-01T07:59:52.709Z,1008.1
2022-11-01T08:04:59.113Z,1008.2
2022-11-01T08:10:29.507Z,1008.4
2022-11-01T08:15:11.844Z,1008.4
2022-11-01T08:20:08.229Z,1008.4
2022-11-01T08:25:24.610Z,1008.4
2022-11-01T08:31:15.073Z,1008.5
2022-11-01T08:35:37.527Z,1008.7
2022-11-01T08:40:33.863Z,1008.7
2022-11-01T08:45:49.257Z,1008.6
2022-11-01T08:50:46.626Z,1008.7
2022-11-01T08:56:03.127Z,1008.9
2022-11-01T09:06:15.956Z,1008.9
2022-11-01T09:11:22.371Z,1009.0
2022-11-01T09:16:18.843Z,1008.9
2022-11-01T09:24:08.560Z,1009.1
2022-11-01T09:33:03.519Z,1009.1
2022-11-01T09:34:02.028Z,1009.4
2022-11-01T09:39:08.473Z,1009.6
2022-11-01T09:45:06.998Z,1009.5
2022-11-01T09:49:21.295Z,1009.4
2022-11-01T09:59:27.410Z,1009.5
2022-11-01T09:59:33.444Z,1009.7
2022-11-01T10:04:40.913Z,1009.8
2022-11-01T10:10:07.336Z,1009.8
2022-11-01T10:15:37.755Z,1010.0
2022-11-01T10:21:12.801Z,1009.7
2022-11-01T10:25:07.158Z,1009.6
2022-11-01T10:30:13.497Z,1009.5
2022-11-01T10:35:19.889Z,1009.6
2022-11-01T10:41:10.576Z,1009.4
2022-11-01T10:53:10.137Z,1009.4
2022-11-01T10:57:57.458Z,1009.3
2022-11-01T11:03:03.867Z,1009.2
2022-11-01T11:09:34.396Z,1009.0
2022-11-01T11:13:16.769Z,1009.1
2022-11-01T11:18:24.708Z,1008.9
2022-11-01T11:28:36.645Z,1008.8
2022-11-01T11:33:44.113Z,1008.9
2022-11-01T11:38:50.638Z,1009.3
2022-11-01T11:43:57.083Z,1009.1
2022-11-01T11:49:04.021Z,1009.0
2022-11-01T11:54:10.511Z,1009.4
2022-11-01T12:00:08.106Z,1009.2
2022-11-01T12:04:46.473Z,1009.2
2022-11-01T12:09:32.865Z,1009.5
2022-11-01T13:21:34.134Z,1010.7
2022-11-01T13:35:21.545Z,1011.9
2022-11-01T13:38:16.232Z,1012.2
2022-11-01T13:41:36.572Z,1011.4
2022-11-01T13:43:08.581Z,1011.9
2022-11-01T13:48:24.992Z,1011.9
2022-11-01T13:54:15.485Z,1012.2
2022-11-01T13:58:37.913Z,1012.1
2022-11-01T14:04:04.330Z,1011.9
2022-11-01T14:08:40.737Z,1011.6
2022-11-01T14:13:57.230Z,1010.9
2022-11-01T14:19:03.659Z,1010.8
2022-11-01T14:24:10.037Z,1010.5
2022-11-01T14:29:36.507Z,1010.4
2022-11-01T14:34:22.879Z,1010.4
2022-11-01T14:39:29.278Z,1010.3
2022-11-01T14:44:35.657Z,1010.2
2022-11-01T14:49:32.043Z,1010.1
2022-11-01T14:54:48.416Z,1009.6
2022-11-01T14:59:54.793Z,1009.6
2022-11-01T15:05:01.225Z,1009.5
2022-11-01T15:10:07.825Z,1009.6
2022-11-01T15:15:14.050Z,1009.7
2022-11-01T15:20:44.497Z,1009.8
2022-11-01T15:25:26.801Z,1009.8
2022-11-01T15:30:33.201Z,1009.9
2022-11-01T15:35:39.556Z,1009.8
2022-11-01T15:40:35.971Z,1009.9
2022-11-01T15:46:37.581Z,1009.9
2022-11-01T15:50:59.868Z,1010.0
2022-11-01T15:56:06.259Z,1009.9
2022-11-01T16:01:12.783Z,1009.9
2022-11-01T16:06:18.995Z,1009.9
2022-11-01T16:11:25.515Z,1009.9
2022-11-01T16:16:51.937Z,1010.0
2022-11-01T16:21:38.293Z,1009.9
2022-11-01T16:26:44.789Z,1009.9
2022-11-01T16:31:51.136Z,1010.0
2022-11-01T16:38:09.652Z,1009.9
2022-11-01T16:42:03.909Z,1010.0
2022-11-01T16:47:10.262Z,1009.9
2022-11-01T16:52:06.621Z,1010.1
2022-11-01T16:57:23.074Z,1010.0
2022-11-01T17:02:29.586Z,1010.1
2022-11-01T17:07:35.798Z,1010.2
2022-11-01T17:12:56.212Z,1010.2
2022-11-01T17:17:48.533Z,1010.3
2022-11-01T17:22:54.924Z,1010.4
2022-11-01T17:28:01.689Z,1010.5
2022-11-01T17:33:27.783Z,1010.5
2022-11-01T17:38:38.360Z,1010.5
2022-11-01T17:43:54.804Z,1010.7
2022-11-01T17:49:02.153Z,1010.7
2022-11-01T17:54:22.682Z,1010.7
2022-11-01T17:59:04.938Z,1010.7
2022-11-01T18:04:11.298Z,1010.8
2022-11-01T18:09:17.730Z,1010.8
2022-11-01T18:14:34.259Z,1010.7
2022-11-01T18:19:30.626Z,1010.8
2022-11-01T18:24:36.996Z,1010.7
2022-11-01T18:29:43.398Z,1010.8
2022-11-01T18:35:31.629Z,1010.8
2022-11-01T18:40:40.256Z,1010.7
2022-11-01T18:46:11.517Z,1010.8
2022-11-01T18:50:54.149Z,1010.8
2022-11-01T18:56:25.655Z,1010.6
2022-11-01T19:00:57.077Z,1010.7
2022-11-01T19:06:03.331Z,1010.7
2022-11-01T19:11:19.790Z,1010.7
2022-11-01T19:16:26.254Z,1010.8
2022-11-01T19:21:32.584Z,1010.8
2022-11-01T19:26:42.957Z,1010.8
2022-11-01T19:31:45.349Z,1010.7
2022-11-01T19:36:51.707Z,1010.8
2022-11-01T19:42:52.248Z,1010.7
2022-11-01T19:47:39.726Z,1010.7
2022-11-01T19:52:47.560Z,1010.7
2022-11-01T19:58:12.500Z,1010.7
2022-11-01T20:02:49.062Z,1010.7
2022-11-01T20:07:55.305Z,1010.8
2022-11-01T20:13:15.370Z,1010.8
2022-11-01T20:18:21.816Z,1010.7
2022-11-01T20:23:27.017Z,1010.8
2022-11-01T20:28:38.128Z,1010.8
2022-11-01T20:33:31.520Z,1010.8
2022-11-01T20:38:47.932Z,1010.7
2022-11-01T20:43:45.334Z,1010.7
2022-11-01T20:48:50.847Z,1010.8
2022-11-01T20:54:17.473Z,1010.7
2022-11-01T20:59:50.233Z,1010.7
2022-11-01T21:04:48.215Z,1010.7
2022-11-01T21:10:03.589Z,1010.8
2022-11-01T21:15:00.957Z,1010.8
2022-11-01T21:20:17.402Z,1010.8
2022-11-01T21:25:13.872Z,1010.7
2022-11-01T21:30:50.411Z,1010.6
2022-11-01T21:35:36.809Z,1010.7
2022-11-01T21:40:43.265Z,1010.6
2022-11-01T21:45:48.657Z,1010.7
2022-11-01T21:50:56.084Z,1010.5
2022-11-01T21:55:52.539Z,1010.5
2022-11-01T22:01:28.310Z,1010.5
2022-11-01T22:06:15.720Z,1010.5
2022-11-01T22:11:32.364Z,1010.5
2022-11-01T22:16:19.972Z,1010.4
2022-11-01T22:21:36.483Z,1010.4
2022-11-01T22:26:42.880Z,1010.5
2022-11-01T22:31:39.265Z,1010.4
2022-11-01T22:36:55.889Z,1010.3
2022-11-01T22:42:05.832Z,1010.3
2022-11-01T22:47:12.361Z,1010.2
2022-11-01T22:52:08.783Z,1010.2
2022-11-01T22:57:25.193Z,1010.2
2022-11-01T23:02:31.700Z,1010.2
2022-11-01T23:07:37.954Z,1010.1
2022-11-01T23:12:47.907Z,1010.1
2022-11-01T23:17:54.252Z,1010.0
2022-11-01T23:23:34.738Z,1009.8
2022-11-01T23:28:42.127Z,1009.8
2022-11-01T23:33:49.112Z,1009.9
2022-11-01T23:39:15.554Z,1009.7
2022-11-01T23:44:01.875Z,1009.7
2022-11-01T23:49:08.282Z,1009.6
2022-11-01T23:54:14.647Z,1009.6
2022-11-01T23:59:21.177Z,1009.7
